< < Back
Terminal Aerodrome Forecast


Current Version              Previous Versions:   1  2  3  4  5  6  7  8  9  

Terminal Aerodrome Forecast

563
FTUS42 KFFC 191500 AAB
TAFAHN
TAF AMD
KAHN 191543Z 1916/2012 10009KT P6SM SCT035
      TEMPO 1916/1918 5SM BR BKN015
     FM200100 08006KT P6SM FEW060
     FM200900 07005KT 4SM BR BKN015=



Latest METAR

399
SAUS70 KWBC 191800 RRA
MTRAHN
METAR KAHN 191751Z VRB04KT 10SM SCT033 SCT047 27/18 A3010 RMK AO2 SLP187
T02720178 10272 20189 58010


USA.gov is the U.S. government's official web portal to all federal, state and local government web resources and services.